sensor_id;sensor_type;location;lat;lon;timestamp;pressure;altitude;pressure_sealevel;temperature;humidity
47556;BME280;33291;46.222;26.460;2022-11-14T00:01:57;97744.44;;;2.08;88.43
47556;BME280;33291;46.222;26.460;2022-11-14T00:04:22;97740.22;;;2.06;88.22
47556;BME280;33291;46.222;26.460;2022-11-14T00:06:48;97743.75;;;2.03;88.29
47556;BME280;33291;46.222;26.460;2022-11-14T00:09:13;97744.72;;;2.01;88.22
47556;BME280;33291;46.222;26.460;2022-11-14T00:11:39;97746.53;;;1.97;88.08
47556;BME280;33291;46.222;26.460;2022-11-14T00:14:05;97745.69;;;1.97;88.64
47556;BME280;33291;46.222;26.460;2022-11-14T00:16:31;97740.84;;;1.89;88.51
47556;BME280;33291;46.222;26.460;2022-11-14T00:18:56;97741.72;;;1.88;88.44
47556;BME280;33291;46.222;26.460;2022-11-14T00:21:22;97735.75;;;1.87;88.85
47556;BME280;33291;46.222;26.460;2022-11-14T00:23:47;97743.50;;;1.86;88.93
47556;BME280;33291;46.222;26.460;2022-11-14T00:26:12;97729.25;;;1.77;88.95
47556;BME280;33291;46.222;26.460;2022-11-14T00:28:38;97734.28;;;1.80;88.99
47556;BME280;33291;46.222;26.460;2022-11-14T00:31:04;97728.44;;;1.76;89.03
47556;BME280;33291;46.222;26.460;2022-11-14T00:33:29;97741.94;;;1.82;89.02
47556;BME280;33291;46.222;26.460;2022-11-14T00:35:55;97739.31;;;1.83;89.22
47556;BME280;33291;46.222;26.460;2022-11-14T00:38:21;97734.19;;;1.83;89.10
47556;BME280;33291;46.222;26.460;2022-11-14T00:40:47;97723.22;;;1.78;89.02
47556;BME280;33291;46.222;26.460;2022-11-14T00:43:13;97737.63;;;1.82;89.08
47556;BME280;33291;46.222;26.460;2022-11-14T00:45:38;97740.19;;;1.82;88.93
47556;BME280;33291;46.222;26.460;2022-11-14T00:48:04;97743.63;;;1.83;89.22
47556;BME280;33291;46.222;26.460;2022-11-14T00:50:29;97730.88;;;1.80;88.67
47556;BME280;33291;46.222;26.460;2022-11-14T00:52:55;97729.97;;;1.81;88.92
47556;BME280;33291;46.222;26.460;2022-11-14T00:55:20;97731.50;;;1.86;88.70
47556;BME280;33291;46.222;26.460;2022-11-14T00:57:46;97723.84;;;1.85;88.95
47556;BME280;33291;46.222;26.460;2022-11-14T01:00:13;97700.59;;;1.64;88.83
47556;BME280;33291;46.222;26.460;2022-11-14T01:02:38;97724.00;;;1.80;89.11
47556;BME280;33291;46.222;26.460;2022-11-14T01:05:04;97728.31;;;1.80;89.06
47556;BME280;33291;46.222;26.460;2022-11-14T01:07:30;97731.78;;;1.78;88.96
47556;BME280;33291;46.222;26.460;2022-11-14T01:09:55;97725.69;;;1.81;88.80
47556;BME280;33291;46.222;26.460;2022-11-14T01:12:21;97717.19;;;1.79;88.80
47556;BME280;33291;46.222;26.460;2022-11-14T01:14:46;97720.56;;;1.81;88.77
47556;BME280;33291;46.222;26.460;2022-11-14T01:17:12;97716.31;;;1.80;89.02
47556;BME280;33291;46.222;26.460;2022-11-14T01:19:38;97701.78;;;1.79;89.25
47556;BME280;33291;46.222;26.460;2022-11-14T01:22:03;97706.69;;;1.85;89.22
47556;BME280;33291;46.222;26.460;2022-11-14T01:24:31;97701.78;;;1.79;89.69
47556;BME280;33291;46.222;26.460;2022-11-14T01:26:57;97700.88;;;1.80;90.21
47556;BME280;33291;46.222;26.460;2022-11-14T01:29:23;97702.50;;;1.83;90.30
47556;BME280;33291;46.222;26.460;2022-11-14T01:31:48;97706.69;;;1.85;89.98
47556;BME280;33291;46.222;26.460;2022-11-14T01:34:14;97697.38;;;1.83;90.02
47556;BME280;33291;46.222;26.460;2022-11-14T01:36:39;97700.78;;;1.83;89.78
47556;BME280;33291;46.222;26.460;2022-11-14T01:39:05;97708.16;;;1.92;89.76
47556;BME280;33291;46.222;26.460;2022-11-14T01:41:30;97703.88;;;1.93;90.48
47556;BME280;33291;46.222;26.460;2022-11-14T01:43:56;97697.88;;;1.92;90.74
47556;BME280;33291;46.222;26.460;2022-11-14T01:54:31;97693.59;;;1.93;90.97
47556;BME280;33291;46.222;26.460;2022-11-14T01:56:59;97702.56;;;2.05;90.63
47556;BME280;33291;46.222;26.460;2022-11-14T01:59:34;97682.13;;;2.02;91.12
47556;BME280;33291;46.222;26.460;2022-11-14T02:02:05;97693.84;;;2.09;91.11
47556;BME280;33291;46.222;26.460;2022-11-14T02:04:36;97695.53;;;2.10;90.86
47556;BME280;33291;46.222;26.460;2022-11-14T02:07:04;97692.03;;;2.11;90.85
47556;BME280;33291;46.222;26.460;2022-11-14T02:09:35;97690.28;;;2.13;91.38
47556;BME280;33291;46.222;26.460;2022-11-14T02:12:05;97678.44;;;2.09;90.91
47556;BME280;33291;46.222;26.460;2022-11-14T02:14:32;97673.22;;;2.10;91.01
47556;BME280;33291;46.222;26.460;2022-11-14T02:16:58;97665.53;;;2.10;91.20
47556;BME280;33291;46.222;26.460;2022-11-14T02:19:23;97680.34;;;2.26;91.31
47556;BME280;33291;46.222;26.460;2022-11-14T02:21:49;97666.91;;;2.19;91.08
47556;BME280;33291;46.222;26.460;2022-11-14T02:24:14;97674.38;;;2.25;91.32
47556;BME280;33291;46.222;26.460;2022-11-14T02:26:40;97689.56;;;2.31;91.59
47556;BME280;33291;46.222;26.460;2022-11-14T02:29:09;97660.19;;;2.15;91.65
47556;BME280;33291;46.222;26.460;2022-11-14T02:31:35;97684.56;;;2.28;91.73
47556;BME280;33291;46.222;26.460;2022-11-14T02:34:00;97675.22;;;2.26;92.44
47556;BME280;33291;46.222;26.460;2022-11-14T02:36:26;97681.81;;;2.33;92.46
47556;BME280;33291;46.222;26.460;2022-11-14T02:38:51;97672.22;;;2.37;92.79
47556;BME280;33291;46.222;26.460;2022-11-14T02:41:17;97667.44;;;2.27;92.67
47556;BME280;33291;46.222;26.460;2022-11-14T02:43:42;97679.88;;;2.38;93.01
47556;BME280;33291;46.222;26.460;2022-11-14T02:46:08;97680.75;;;2.39;93.05
47556;BME280;33291;46.222;26.460;2022-11-14T02:48:34;97685.88;;;2.39;91.67
47556;BME280;33291;46.222;26.460;2022-11-14T02:50:59;97685.16;;;2.35;92.16
47556;BME280;33291;46.222;26.460;2022-11-14T02:53:25;97685.03;;;2.38;92.38
47556;BME280;33291;46.222;26.460;2022-11-14T02:55:50;97675.59;;;2.39;92.36
47556;BME280;33291;46.222;26.460;2022-11-14T02:58:16;97668.66;;;2.41;91.91
47556;BME280;33291;46.222;26.460;2022-11-14T03:00:41;97648.44;;;2.31;92.26
47556;BME280;33291;46.222;26.460;2022-11-14T03:03:07;97680.25;;;2.51;91.49
47556;BME280;33291;46.222;26.460;2022-11-14T03:05:32;97680.25;;;2.51;91.12
47556;BME280;33291;46.222;26.460;2022-11-14T03:07:58;97678.81;;;2.44;90.93
47556;BME280;33291;46.222;26.460;2022-11-14T03:10:24;97681.16;;;2.50;90.74
47556;BME280;33291;46.222;26.460;2022-11-14T03:12:53;97682.09;;;2.47;90.61
47556;BME280;33291;46.222;26.460;2022-11-14T03:15:19;97680.25;;;2.51;90.45
47556;BME280;33291;46.222;26.460;2022-11-14T03:17:44;97674.38;;;2.47;90.52
47556;BME280;33291;46.222;26.460;2022-11-14T03:20:10;97675.00;;;2.54;91.00
47556;BME280;33291;46.222;26.460;2022-11-14T03:22:35;97644.81;;;2.37;90.92
47556;BME280;33291;46.222;26.460;2022-11-14T03:25:01;97683.47;;;2.56;91.37
47556;BME280;33291;46.222;26.460;2022-11-14T03:27:26;97683.47;;;2.56;91.30
47556;BME280;33291;46.222;26.460;2022-11-14T03:29:52;97677.63;;;2.53;92.29
47556;BME280;33291;46.222;26.460;2022-11-14T03:32:17;97688.50;;;2.59;91.61
47556;BME280;33291;46.222;26.460;2022-11-14T03:34:43;97687.56;;;2.62;91.42
47556;BME280;33291;46.222;26.460;2022-11-14T03:37:09;97681.47;;;2.64;91.87
47556;BME280;33291;46.222;26.460;2022-11-14T03:39:34;97675.41;;;2.65;92.03
47556;BME280;33291;46.222;26.460;2022-11-14T03:42:00;97672.00;;;2.65;92.04
47556;BME280;33291;46.222;26.460;2022-11-14T03:44:25;97666.03;;;2.64;92.58
47556;BME280;33291;46.222;26.460;2022-11-14T03:46:52;97671.00;;;2.69;93.23
47556;BME280;33291;46.222;26.460;2022-11-14T03:49:17;97669.25;;;2.70;93.68
47556;BME280;33291;46.222;26.460;2022-11-14T03:51:43;97660.88;;;2.64;94.16
47556;BME280;33291;46.222;26.460;2022-11-14T03:54:08;97665.66;;;2.74;94.56
47556;BME280;33291;46.222;26.460;2022-11-14T03:56:34;97663.09;;;2.74;94.62
47556;BME280;33291;46.222;26.460;2022-11-14T03:59:00;97668.16;;;2.75;95.04
47556;BME280;33291;46.222;26.460;2022-11-14T04:01:25;97660.38;;;2.77;95.40
47556;BME280;33291;46.222;26.460;2022-11-14T04:03:52;97663.03;;;2.75;95.77
47556;BME280;33291;46.222;26.460;2022-11-14T04:06:17;97666.28;;;2.79;95.74
47556;BME280;33291;46.222;26.460;2022-11-14T04:08:43;97666.16;;;2.82;96.07
47556;BME280;33291;46.222;26.460;2022-11-14T04:11:08;97670.44;;;2.83;96.13
47556;BME280;33291;46.222;26.460;2022-11-14T04:13:34;97664.47;;;2.82;96.55
47556;BME280;33291;46.222;26.460;2022-11-14T04:15:59;97661.03;;;2.82;96.65
47556;BME280;33291;46.222;26.460;2022-11-14T04:18:25;97670.38;;;2.84;96.60
47556;BME280;33291;46.222;26.460;2022-11-14T04:20:51;97666.09;;;2.83;96.86
47556;BME280;33291;46.222;26.460;2022-11-14T04:23:17;97663.59;;;2.82;97.07
47556;BME280;33291;46.222;26.460;2022-11-14T04:25:44;97666.91;;;2.86;96.87
47556;BME280;33291;46.222;26.460;2022-11-14T04:28:10;97664.16;;;2.90;96.69
47556;BME280;33291;46.222;26.460;2022-11-14T04:30:36;97658.94;;;2.92;96.55
47556;BME280;33291;46.222;26.460;2022-11-14T04:33:01;97668.13;;;2.97;96.24
47556;BME280;33291;46.222;26.460;2022-11-14T04:35:27;97663.88;;;2.96;96.42
47556;BME280;33291;46.222;26.460;2022-11-14T04:37:52;97663.75;;;2.99;96.27
47556;BME280;33291;46.222;26.460;2022-11-14T04:40:17;97663.75;;;2.99;95.77
47556;BME280;33291;46.222;26.460;2022-11-14T04:42:43;97650.88;;;2.99;95.47
47556;BME280;33291;46.222;26.460;2022-11-14T04:45:09;97655.91;;;3.02;95.53
47556;BME280;33291;46.222;26.460;2022-11-14T04:47:34;97658.34;;;3.06;95.44
47556;BME280;33291;46.222;26.460;2022-11-14T04:50:00;97658.16;;;3.10;95.10
47556;BME280;33291;46.222;26.460;2022-11-14T04:52:25;97664.00;;;3.14;95.13
47556;BME280;33291;46.222;26.460;2022-11-14T04:54:51;97670.84;;;3.15;95.01
47556;BME280;33291;46.222;26.460;2022-11-14T04:57:16;97665.75;;;3.13;95.90
47556;BME280;33291;46.222;26.460;2022-11-14T04:59:42;97668.28;;;3.15;95.87
47556;BME280;33291;46.222;26.460;2022-11-14T05:02:08;97674.31;;;3.14;95.07
47556;BME280;33291;46.222;26.460;2022-11-14T05:04:33;97659.13;;;3.08;94.45
47556;BME280;33291;46.222;26.460;2022-11-14T05:06:59;97658.09;;;3.12;94.47
47556;BME280;33291;46.222;26.460;2022-11-14T05:09:24;97669.09;;;3.15;94.44
47556;BME280;33291;46.222;26.460;2022-11-14T05:11:50;97677.63;;;3.17;94.06
47556;BME280;33291;46.222;26.460;2022-11-14T05:14:15;97674.97;;;3.19;93.72
47556;BME280;33291;46.222;26.460;2022-11-14T05:16:41;97681.91;;;3.17;93.77
47556;BME280;33291;46.222;26.460;2022-11-14T05:19:06;97665.81;;;3.12;93.47
47556;BME280;33291;46.222;26.460;2022-11-14T05:21:32;97680.13;;;3.19;93.35
47556;BME280;33291;46.222;26.460;2022-11-14T05:23:57;97691.81;;;3.26;93.50
47556;BME280;33291;46.222;26.460;2022-11-14T05:26:23;97686.59;;;3.28;93.25
47556;BME280;33291;46.222;26.460;2022-11-14T05:28:48;97686.59;;;3.28;93.24
47556;BME280;33291;46.222;26.460;2022-11-14T05:31:14;97675.47;;;3.27;92.84
47556;BME280;33291;46.222;26.460;2022-11-14T05:33:42;97683.13;;;3.29;92.80
47556;BME280;33291;46.222;26.460;2022-11-14T05:36:11;97683.00;;;3.32;93.12
47556;BME280;33291;46.222;26.460;2022-11-14T05:38:37;97681.19;;;3.34;92.88
47556;BME280;33291;46.222;26.460;2022-11-14T05:41:16;97669.69;;;3.22;92.92
47556;BME280;33291;46.222;26.460;2022-11-14T05:43:42;97682.13;;;3.33;93.16
47556;BME280;33291;46.222;26.460;2022-11-14T05:46:10;97679.47;;;3.34;93.14
47556;BME280;33291;46.222;26.460;2022-11-14T05:48:36;97680.25;;;3.36;93.57
47556;BME280;33291;46.222;26.460;2022-11-14T05:51:03;97675.03;;;3.38;94.60
47556;BME280;33291;46.222;26.460;2022-11-14T05:53:30;97674.25;;;3.36;94.82
47556;BME280;33291;46.222;26.460;2022-11-14T05:55:59;97677.66;;;3.36;95.04
47556;BME280;33291;46.222;26.460;2022-11-14T05:58:26;97667.34;;;3.36;94.77
47556;BME280;33291;46.222;26.460;2022-11-14T06:00:52;97675.69;;;3.43;94.87
47556;BME280;33291;46.222;26.460;2022-11-14T06:03:17;97673.09;;;3.43;94.94
47556;BME280;33291;46.222;26.460;2022-11-14T06:05:43;97677.34;;;3.44;95.07
47556;BME280;33291;46.222;26.460;2022-11-14T06:08:08;97670.19;;;3.51;94.45
47556;BME280;33291;46.222;26.460;2022-11-14T06:10:35;97670.13;;;3.52;94.49
47556;BME280;33291;46.222;26.460;2022-11-14T06:13:00;97664.91;;;3.54;94.56
47556;BME280;33291;46.222;26.460;2022-11-14T06:15:26;97673.19;;;3.61;94.67
47556;BME280;33291;46.222;26.460;2022-11-14T06:17:54;97670.47;;;3.64;94.67
47556;BME280;33291;46.222;26.460;2022-11-14T06:20:20;97673.13;;;3.62;94.94
47556;BME280;33291;46.222;26.460;2022-11-14T06:22:45;97669.66;;;3.63;95.19
47556;BME280;33291;46.222;26.460;2022-11-14T06:25:11;97673.75;;;3.67;94.99
47556;BME280;33291;46.222;26.460;2022-11-14T06:27:36;97660.81;;;3.69;94.96
47556;BME280;33291;46.222;26.460;2022-11-14T06:30:02;97660.69;;;3.72;95.02
47556;BME280;33291;46.222;26.460;2022-11-14T06:32:28;97670.00;;;3.74;95.31
47556;BME280;33291;46.222;26.460;2022-11-14T06:34:53;97660.50;;;3.77;95.23
47556;BME280;33291;46.222;26.460;2022-11-14T06:37:19;97666.41;;;3.79;95.33
47556;BME280;33291;46.222;26.460;2022-11-14T06:39:44;97666.34;;;3.80;95.26
47556;BME280;33291;46.222;26.460;2022-11-14T06:42:10;97664.59;;;3.81;95.88
47556;BME280;33291;46.222;26.460;2022-11-14T06:44:35;97664.50;;;3.82;95.63
47556;BME280;33291;46.222;26.460;2022-11-14T06:47:01;97667.94;;;3.83;95.57
47556;BME280;33291;46.222;26.460;2022-11-14T06:49:26;97668.72;;;3.85;95.51
47556;BME280;33291;46.222;26.460;2022-11-14T06:51:52;97657.78;;;3.80;95.66
47556;BME280;33291;46.222;26.460;2022-11-14T06:54:18;97671.16;;;3.88;95.99
47556;BME280;33291;46.222;26.460;2022-11-14T06:56:44;97664.31;;;3.87;95.72
47556;BME280;33291;46.222;26.460;2022-11-14T06:59:10;97667.53;;;3.92;95.70
47556;BME280;33291;46.222;26.460;2022-11-14T07:01:35;97662.38;;;3.92;95.81
47556;BME280;33291;46.222;26.460;2022-11-14T07:04:01;97666.75;;;3.90;96.01
47556;BME280;33291;46.222;26.460;2022-11-14T07:06:27;97657.28;;;3.90;96.16
47556;BME280;33291;46.222;26.460;2022-11-14T07:08:54;97664.97;;;3.92;95.99
47556;BME280;33291;46.222;26.460;2022-11-14T07:11:23;97660.69;;;3.91;96.02
47556;BME280;33291;46.222;26.460;2022-11-14T07:13:57;97668.91;;;3.99;95.82
47556;BME280;33291;46.222;26.460;2022-11-14T07:16:26;97670.53;;;4.02;96.21
47556;BME280;33291;46.222;26.460;2022-11-14T07:18:54;97638.66;;;3.84;95.67
47556;BME280;33291;46.222;26.460;2022-11-14T07:21:20;97673.03;;;4.03;95.73
47556;BME280;33291;46.222;26.460;2022-11-14T07:23:46;97667.81;;;4.05;96.02
47556;BME280;33291;46.222;26.460;2022-11-14T07:26:11;97663.38;;;4.08;95.30
47556;BME280;33291;46.222;26.460;2022-11-14T07:28:39;97663.38;;;4.08;95.77
47556;BME280;33291;46.222;26.460;2022-11-14T07:31:08;97658.28;;;4.07;95.62
47556;BME280;33291;46.222;26.460;2022-11-14T07:33:34;97663.16;;;4.13;95.33
47556;BME280;33291;46.222;26.460;2022-11-14T07:36:00;97661.25;;;4.17;95.40
47556;BME280;33291;46.222;26.460;2022-11-14T07:38:25;97656.09;;;4.17;95.58
47556;BME280;33291;46.222;26.460;2022-11-14T07:41:01;97644.09;;;4.16;95.23
47556;BME280;33291;46.222;26.460;2022-11-14T07:43:28;97642.91;;;4.23;94.85
47556;BME280;33291;46.222;26.460;2022-11-14T07:46:05;97633.34;;;4.25;94.47
47556;BME280;33291;46.222;26.460;2022-11-14T07:48:31;97653.53;;;4.36;94.45
47556;BME280;33291;46.222;26.460;2022-11-14T07:51:00;97644.94;;;4.35;94.31
47556;BME280;33291;46.222;26.460;2022-11-14T07:53:27;97637.19;;;4.35;94.47
47556;BME280;33291;46.222;26.460;2022-11-14T07:55:53;97642.91;;;4.42;94.11
47556;BME280;33291;46.222;26.460;2022-11-14T07:58:19;97636.81;;;4.43;93.88
47556;BME280;33291;46.222;26.460;2022-11-14T08:00:45;97643.50;;;4.47;93.95
47556;BME280;33291;46.222;26.460;2022-11-14T08:03:10;97646.78;;;4.51;93.54
47556;BME280;33291;46.222;26.460;2022-11-14T08:05:36;97644.03;;;4.54;92.94
47556;BME280;33291;46.222;26.460;2022-11-14T08:08:02;97632.00;;;4.54;92.76
47556;BME280;33291;46.222;26.460;2022-11-14T08:10:28;97626.06;;;4.52;92.19
47556;BME280;33291;46.222;26.460;2022-11-14T08:12:58;97634.38;;;4.59;91.96
47556;BME280;33291;46.222;26.460;2022-11-14T08:15:24;97602.91;;;4.51;91.47
47556;BME280;33291;46.222;26.460;2022-11-14T08:17:50;97621.31;;;4.62;91.32
47556;BME280;33291;46.222;26.460;2022-11-14T08:20:15;97623.75;;;4.65;90.86
47556;BME280;33291;46.222;26.460;2022-11-14T08:22:41;97619.03;;;4.73;90.86
47556;BME280;33291;46.222;26.460;2022-11-14T08:25:06;97600.22;;;4.71;91.08
47556;BME280;33291;46.222;26.460;2022-11-14T08:27:32;97611.59;;;4.85;90.71
47556;BME280;33291;46.222;26.460;2022-11-14T08:29:57;97606.28;;;4.88;90.51
47556;BME280;33291;46.222;26.460;2022-11-14T08:32:23;97615.38;;;4.95;90.29
47556;BME280;33291;46.222;26.460;2022-11-14T08:34:48;97617.75;;;5.00;90.19
47556;BME280;33291;46.222;26.460;2022-11-14T08:37:14;97614.31;;;4.99;90.16
47556;BME280;33291;46.222;26.460;2022-11-14T08:39:39;97607.94;;;5.06;89.83
47556;BME280;33291;46.222;26.460;2022-11-14T08:42:05;97599.44;;;5.04;89.34
47556;BME280;33291;46.222;26.460;2022-11-14T08:44:30;97605.13;;;5.11;89.33
47556;BME280;33291;46.222;26.460;2022-11-14T08:46:56;97606.56;;;5.16;88.90
47556;BME280;33291;46.222;26.460;2022-11-14T08:49:25;97610.13;;;5.31;88.58
47556;BME280;33291;46.222;26.460;2022-11-14T08:51:51;97595.63;;;5.45;88.13
47556;BME280;33291;46.222;26.460;2022-11-14T08:54:18;97588.50;;;5.66;86.99
47556;BME280;33291;46.222;26.460;2022-11-14T08:56:43;97602.44;;;5.97;86.10
47556;BME280;33291;46.222;26.460;2022-11-14T08:59:09;97592.56;;;6.19;85.13
47556;BME280;33291;46.222;26.460;2022-11-14T09:01:34;97581.94;;;6.40;83.31
47556;BME280;33291;46.222;26.460;2022-11-14T09:04:00;97589.16;;;6.65;82.28
47556;BME280;33291;46.222;26.460;2022-11-14T09:06:25;97593.09;;;6.87;81.61
47556;BME280;33291;46.222;26.460;2022-11-14T09:08:51;97589.25;;;7.08;80.03
47556;BME280;33291;46.222;26.460;2022-11-14T09:11:17;97585.47;;;7.28;79.30
47556;BME280;33291;46.222;26.460;2022-11-14T09:13:42;97568.00;;;7.32;78.41
47556;BME280;33291;46.222;26.460;2022-11-14T09:16:08;97579.94;;;7.49;77.99
47556;BME280;33291;46.222;26.460;2022-11-14T09:18:33;97579.81;;;7.65;77.03
47556;BME280;33291;46.222;26.460;2022-11-14T09:21:07;97581.69;;;7.77;75.91
47556;BME280;33291;46.222;26.460;2022-11-14T09:23:33;97580.47;;;7.83;75.95
47556;BME280;33291;46.222;26.460;2022-11-14T09:26:07;97575.66;;;7.91;75.13
47556;BME280;33291;46.222;26.460;2022-11-14T09:28:33;97562.56;;;7.93;75.26
47556;BME280;33291;46.222;26.460;2022-11-14T09:31:03;97570.06;;;7.97;75.34
47556;BME280;33291;46.222;26.460;2022-11-14T09:33:29;97569.41;;;7.94;74.97
47556;BME280;33291;46.222;26.460;2022-11-14T09:35:56;97565.16;;;7.93;74.53
47556;BME280;33291;46.222;26.460;2022-11-14T09:38:22;97567.47;;;7.97;74.33
47556;BME280;33291;46.222;26.460;2022-11-14T09:43:44;97558.72;;;8.13;73.76
47556;BME280;33291;46.222;26.460;2022-11-14T09:46:25;97556.72;;;8.31;72.85
47556;BME280;33291;46.222;26.460;2022-11-14T09:48:52;97555.47;;;8.36;72.78
47556;BME280;33291;46.222;26.460;2022-11-14T09:51:23;97549.72;;;8.46;72.58
47556;BME280;33291;46.222;26.460;2022-11-14T09:53:55;97549.34;;;8.52;72.22
47556;BME280;33291;46.222;26.460;2022-11-14T09:56:25;97539.38;;;8.59;71.42
47556;BME280;33291;46.222;26.460;2022-11-14T09:58:52;97534.28;;;8.57;70.97
47556;BME280;33291;46.222;26.460;2022-11-14T10:01:43;97548.13;;;8.70;70.83
47556;BME280;33291;46.222;26.460;2022-11-14T10:04:21;97542.31;;;8.80;70.61
47556;BME280;33291;46.222;26.460;2022-11-14T10:07:02;97531.09;;;8.79;70.64
47556;BME280;33291;46.222;26.460;2022-11-14T10:10:02;97536.28;;;8.92;70.25
47556;BME280;33291;46.222;26.460;2022-11-14T10:12:38;97537.00;;;8.94;69.88
47556;BME280;33291;46.222;26.460;2022-11-14T10:15:22;97537.41;;;8.88;70.31
47556;BME280;33291;46.222;26.460;2022-11-14T10:20:54;97532.56;;;8.96;69.77
47556;BME280;33291;46.222;26.460;2022-11-14T10:26:27;97517.28;;;8.92;70.09
47556;BME280;33291;46.222;26.460;2022-11-14T10:34:01;97513.94;;;9.02;70.44
47556;BME280;33291;46.222;26.460;2022-11-14T10:41:45;97508.22;;;9.23;68.96
47556;BME280;33291;46.222;26.460;2022-11-14T10:44:15;97487.66;;;9.07;69.32
47556;BME280;33291;46.222;26.460;2022-11-14T10:46:46;97504.69;;;9.24;69.33
47556;BME280;33291;46.222;26.460;2022-11-14T10:49:19;97500.72;;;9.31;69.19
47556;BME280;33291;46.222;26.460;2022-11-14T10:51:50;97506.44;;;9.36;69.22
47556;BME280;33291;46.222;26.460;2022-11-14T10:54:17;97494.66;;;9.43;68.80
47556;BME280;33291;46.222;26.460;2022-11-14T10:56:50;97491.16;;;9.45;68.57
47556;BME280;33291;46.222;26.460;2022-11-14T10:59:17;97490.72;;;9.51;68.34
47556;BME280;33291;46.222;26.460;2022-11-14T11:01:55;97495.69;;;9.54;68.05
47556;BME280;33291;46.222;26.460;2022-11-14T11:04:29;97483.84;;;9.50;67.83
47556;BME280;33291;46.222;26.460;2022-11-14T11:09:31;97476.75;;;9.52;67.55
47556;BME280;33291;46.222;26.460;2022-11-14T11:12:19;97479.97;;;9.55;67.55
47556;BME280;33291;46.222;26.460;2022-11-14T11:14:47;97483.28;;;9.57;67.33
47556;BME280;33291;46.222;26.460;2022-11-14T11:19:43;97473.72;;;9.58;67.78
47556;BME280;33291;46.222;26.460;2022-11-14T11:22:27;97475.59;;;9.56;67.45
47556;BME280;33291;46.222;26.460;2022-11-14T11:24:53;97447.88;;;9.43;67.62
47556;BME280;33291;46.222;26.460;2022-11-14T11:27:20;97477.16;;;9.58;67.42
47556;BME280;33291;46.222;26.460;2022-11-14T11:32:27;97456.91;;;9.51;67.55
47556;BME280;33291;46.222;26.460;2022-11-14T11:34:54;97473.91;;;9.68;67.51
47556;BME280;33291;46.222;26.460;2022-11-14T11:37:25;97467.56;;;9.72;67.13
47556;BME280;33291;46.222;26.460;2022-11-14T11:39:55;97457.38;;;9.69;67.10
47556;BME280;33291;46.222;26.460;2022-11-14T11:42:43;97476.88;;;9.74;66.93
47556;BME280;33291;46.222;26.460;2022-11-14T11:45:14;97465.56;;;9.75;66.95
47556;BME280;33291;46.222;26.460;2022-11-14T11:47:45;97464.72;;;9.75;66.74
47556;BME280;33291;46.222;26.460;2022-11-14T11:50:17;97457.03;;;9.73;67.06
47556;BME280;33291;46.222;26.460;2022-11-14T11:53:06;97461.81;;;9.67;66.70
47556;BME280;33291;46.222;26.460;2022-11-14T11:55:43;97457.47;;;9.67;67.25
47556;BME280;33291;46.222;26.460;2022-11-14T11:58:23;97459.13;;;9.68;67.17
47556;BME280;33291;46.222;26.460;2022-11-14T12:00:51;97461.50;;;9.71;67.20
47556;BME280;33291;46.222;26.460;2022-11-14T12:03:20;97455.38;;;9.72;67.34
47556;BME280;33291;46.222;26.460;2022-11-14T12:06:24;97456.81;;;9.76;67.12
47556;BME280;33291;46.222;26.460;2022-11-14T12:09:17;97451.84;;;9.73;67.24
47556;BME280;33291;46.222;26.460;2022-11-14T12:11:48;97451.94;;;9.72;67.51
47556;BME280;33291;46.222;26.460;2022-11-14T12:14:34;97449.66;;;9.67;67.50
47556;BME280;33291;46.222;26.460;2022-11-14T12:20:11;97443.03;;;9.63;67.71
47556;BME280;33291;46.222;26.460;2022-11-14T12:30:34;97443.38;;;9.46;69.10
47556;BME280;33291;46.222;26.460;2022-11-14T12:33:10;97442.88;;;9.40;69.39
47556;BME280;33291;46.222;26.460;2022-11-14T12:35:50;97431.47;;;9.30;69.51
47556;BME280;33291;46.222;26.460;2022-11-14T12:38:17;97438.53;;;9.28;69.97
47556;BME280;33291;46.222;26.460;2022-11-14T12:40:50;97441.69;;;9.20;70.57
47556;BME280;33291;46.222;26.460;2022-11-14T12:43:36;97442.72;;;9.18;70.81
47556;BME280;33291;46.222;26.460;2022-11-14T12:46:07;97444.06;;;9.11;71.01
47556;BME280;33291;46.222;26.460;2022-11-14T12:48:38;97440.88;;;8.94;71.42
47556;BME280;33291;46.222;26.460;2022-11-14T12:51:48;97447.94;;;8.92;71.97
47556;BME280;33291;46.222;26.460;2022-11-14T12:54:01;97444.31;;;8.82;72.73
47556;BME280;33291;46.222;26.460;2022-11-14T13:10:40;97433.13;;;8.28;75.13
47556;BME280;33291;46.222;26.460;2022-11-14T13:13:14;97445.81;;;8.20;75.59
47556;BME280;33291;46.222;26.460;2022-11-14T13:15:59;97436.22;;;8.08;76.22
47556;BME280;33291;46.222;26.460;2022-11-14T13:21:37;97450.53;;;8.00;77.28
47556;BME280;33291;46.222;26.460;2022-11-14T13:24:17;97435.75;;;7.88;77.75
47556;BME280;33291;46.222;26.460;2022-11-14T13:32:00;97437.09;;;7.67;79.36
47556;BME280;33291;46.222;26.460;2022-11-14T13:40:04;97434.97;;;7.46;80.81
47556;BME280;33291;46.222;26.460;2022-11-14T13:48:35;97446.09;;;7.34;81.78
47556;BME280;33291;46.222;26.460;2022-11-14T13:51:10;97443.13;;;7.25;82.44
47556;BME280;33291;46.222;26.460;2022-11-14T13:53:38;97418.25;;;7.08;82.82
47556;BME280;33291;46.222;26.460;2022-11-14T14:01:55;97431.84;;;7.12;83.38
47556;BME280;33291;46.222;26.460;2022-11-14T14:07:31;97430.59;;;7.05;83.94
47556;BME280;33291;46.222;26.460;2022-11-14T14:10:28;97438.53;;;7.02;84.34
47556;BME280;33291;46.222;26.460;2022-11-14T14:15:44;97437.44;;;6.91;84.63
47556;BME280;33291;46.222;26.460;2022-11-14T14:18:26;97440.03;;;6.91;84.96
47556;BME280;33291;46.222;26.460;2022-11-14T14:23:52;97435.13;;;6.87;85.40
47556;BME280;33291;46.222;26.460;2022-11-14T14:31:44;97433.91;;;6.78;86.02
47556;BME280;33291;46.222;26.460;2022-11-14T14:34:29;97440.00;;;6.77;86.19
47556;BME280;33291;46.222;26.460;2022-11-14T14:36:56;97432.41;;;6.74;86.38
47556;BME280;33291;46.222;26.460;2022-11-14T14:39:26;97429.09;;;6.72;86.38
47556;BME280;33291;46.222;26.460;2022-11-14T14:41:54;97424.94;;;6.69;86.50
47556;BME280;33291;46.222;26.460;2022-11-14T14:46:56;97428.91;;;6.61;87.00
47556;BME280;33291;46.222;26.460;2022-11-14T14:49:27;97432.44;;;6.60;87.24